sensor_id;sensor_type;location;lat;lon;timestamp;P1;durP1;ratioP1;P2;durP2;ratioP2
46845;SDS011;33947;46.804;134.252;2023-07-22T00:00:44;14.95;;;10.85;;
46845;SDS011;33947;46.804;134.252;2023-07-22T00:03:51;20.70;;;11.00;;
46845;SDS011;33947;46.804;134.252;2023-07-22T00:07:16;17.35;;;9.82;;
46845;SDS011;33947;46.804;134.252;2023-07-22T00:10:20;12.32;;;9.57;;
46845;SDS011;33947;46.804;134.252;2023-07-22T00:16:36;15.18;;;10.80;;
46845;SDS011;33947;46.804;134.252;2023-07-22T00:19:41;13.75;;;10.23;;
46845;SDS011;33947;46.804;134.252;2023-07-22T00:22:48;15.55;;;10.45;;
46845;SDS011;33947;46.804;134.252;2023-07-22T00:25:58;18.85;;;11.13;;
46845;SDS011;33947;46.804;134.252;2023-07-22T00:29:02;29.00;;;12.25;;
46845;SDS011;33947;46.804;134.252;2023-07-22T00:32:11;21.75;;;10.43;;
46845;SDS011;33947;46.804;134.252;2023-07-22T00:35:17;18.77;;;10.80;;
46845;SDS011;33947;46.804;134.252;2023-07-22T00:38:22;15.35;;;9.23;;
46845;SDS011;33947;46.804;134.252;2023-07-22T00:41:27;18.10;;;9.65;;
46845;SDS011;33947;46.804;134.252;2023-07-22T00:44:36;16.75;;;9.45;;
46845;SDS011;33947;46.804;134.252;2023-07-22T00:47:41;16.75;;;9.27;;
46845;SDS011;33947;46.804;134.252;2023-07-22T00:50:46;27.90;;;10.20;;
46845;SDS011;33947;46.804;134.252;2023-07-22T00:53:51;15.27;;;9.50;;
46845;SDS011;33947;46.804;134.252;2023-07-22T00:56:57;23.83;;;10.27;;
46845;SDS011;33947;46.804;134.252;2023-07-22T01:00:02;19.23;;;10.50;;
46845;SDS011;33947;46.804;134.252;2023-07-22T01:03:11;15.70;;;9.77;;
46845;SDS011;33947;46.804;134.252;2023-07-22T01:06:17;13.70;;;9.80;;
46845;SDS011;33947;46.804;134.252;2023-07-22T01:09:21;16.80;;;10.77;;
46845;SDS011;33947;46.804;134.252;2023-07-22T01:12:32;23.20;;;11.05;;
46845;SDS011;33947;46.804;134.252;2023-07-22T01:15:38;18.40;;;10.73;;
46845;SDS011;33947;46.804;134.252;2023-07-22T01:18:46;21.88;;;10.88;;
46845;SDS011;33947;46.804;134.252;2023-07-22T01:21:54;53.67;;;23.75;;
46845;SDS011;33947;46.804;134.252;2023-07-22T01:25:00;44.13;;;13.63;;
46845;SDS011;33947;46.804;134.252;2023-07-22T01:28:10;30.30;;;12.70;;
46845;SDS011;33947;46.804;134.252;2023-07-22T01:31:19;25.35;;;12.82;;
46845;SDS011;33947;46.804;134.252;2023-07-22T01:34:24;17.48;;;11.50;;
46845;SDS011;33947;46.804;134.252;2023-07-22T01:37:28;20.10;;;11.32;;
46845;SDS011;33947;46.804;134.252;2023-07-22T01:40:33;22.85;;;11.88;;
46845;SDS011;33947;46.804;134.252;2023-07-22T01:43:48;31.38;;;12.15;;
46845;SDS011;33947;46.804;134.252;2023-07-22T01:47:03;24.83;;;12.27;;
46845;SDS011;33947;46.804;134.252;2023-07-22T01:50:08;32.05;;;12.20;;
46845;SDS011;33947;46.804;134.252;2023-07-22T01:56:59;16.50;;;10.90;;
46845;SDS011;33947;46.804;134.252;2023-07-22T02:00:10;21.90;;;12.32;;
46845;SDS011;33947;46.804;134.252;2023-07-22T02:06:21;25.05;;;12.57;;
46845;SDS011;33947;46.804;134.252;2023-07-22T02:09:27;21.92;;;11.25;;
46845;SDS011;33947;46.804;134.252;2023-07-22T02:12:32;19.17;;;11.10;;
46845;SDS011;33947;46.804;134.252;2023-07-22T02:15:37;22.60;;;11.93;;
46845;SDS011;33947;46.804;134.252;2023-07-22T02:18:41;28.58;;;11.93;;
46845;SDS011;33947;46.804;134.252;2023-07-22T02:21:46;26.35;;;14.10;;
46845;SDS011;33947;46.804;134.252;2023-07-22T02:24:52;15.45;;;10.93;;
46845;SDS011;33947;46.804;134.252;2023-07-22T02:31:02;18.13;;;11.55;;
46845;SDS011;33947;46.804;134.252;2023-07-22T02:34:11;24.38;;;11.40;;
46845;SDS011;33947;46.804;134.252;2023-07-22T02:37:16;17.98;;;10.68;;
46845;SDS011;33947;46.804;134.252;2023-07-22T02:40:20;15.35;;;10.55;;
46845;SDS011;33947;46.804;134.252;2023-07-22T02:43:25;16.75;;;10.38;;
46845;SDS011;33947;46.804;134.252;2023-07-22T02:46:32;21.02;;;10.23;;
46845;SDS011;33947;46.804;134.252;2023-07-22T02:52:41;15.55;;;9.63;;
46845;SDS011;33947;46.804;134.252;2023-07-22T02:55:47;14.95;;;9.40;;
46845;SDS011;33947;46.804;134.252;2023-07-22T02:58:52;18.02;;;11.13;;
46845;SDS011;33947;46.804;134.252;2023-07-22T03:01:57;14.75;;;9.90;;
46845;SDS011;33947;46.804;134.252;2023-07-22T03:05:05;19.55;;;9.77;;
46845;SDS011;33947;46.804;134.252;2023-07-22T03:08:11;12.15;;;8.73;;
46845;SDS011;33947;46.804;134.252;2023-07-22T03:11:19;16.20;;;9.73;;
46845;SDS011;33947;46.804;134.252;2023-07-22T03:14:23;13.57;;;9.48;;
46845;SDS011;33947;46.804;134.252;2023-07-22T03:17:29;13.07;;;10.13;;
46845;SDS011;33947;46.804;134.252;2023-07-22T03:20:34;16.02;;;10.00;;
46845;SDS011;33947;46.804;134.252;2023-07-22T03:23:39;13.13;;;9.73;;
46845;SDS011;33947;46.804;134.252;2023-07-22T03:26:44;12.73;;;9.48;;
46845;SDS011;33947;46.804;134.252;2023-07-22T03:29:48;13.18;;;8.63;;
46845;SDS011;33947;46.804;134.252;2023-07-22T03:32:55;25.08;;;10.52;;
46845;SDS011;33947;46.804;134.252;2023-07-22T03:36:00;16.75;;;9.18;;
46845;SDS011;33947;46.804;134.252;2023-07-22T03:39:08;14.48;;;8.95;;
46845;SDS011;33947;46.804;134.252;2023-07-22T03:42:13;14.20;;;9.18;;
46845;SDS011;33947;46.804;134.252;2023-07-22T03:45:18;21.15;;;9.18;;
46845;SDS011;33947;46.804;134.252;2023-07-22T03:48:23;11.80;;;8.30;;
46845;SDS011;33947;46.804;134.252;2023-07-22T03:51:31;14.55;;;8.95;;
46845;SDS011;33947;46.804;134.252;2023-07-22T03:54:36;12.57;;;7.90;;
46845;SDS011;33947;46.804;134.252;2023-07-22T03:57:42;14.65;;;8.70;;
46845;SDS011;33947;46.804;134.252;2023-07-22T04:04:23;12.15;;;8.27;;
46845;SDS011;33947;46.804;134.252;2023-07-22T04:07:31;14.65;;;8.45;;
46845;SDS011;33947;46.804;134.252;2023-07-22T04:10:36;24.05;;;9.38;;
46845;SDS011;33947;46.804;134.252;2023-07-22T04:13:41;12.85;;;8.88;;
46845;SDS011;33947;46.804;134.252;2023-07-22T04:19:51;10.10;;;8.38;;
46845;SDS011;33947;46.804;134.252;2023-07-22T04:22:56;12.38;;;8.57;;
46845;SDS011;33947;46.804;134.252;2023-07-22T04:26:03;15.60;;;8.90;;
46845;SDS011;33947;46.804;134.252;2023-07-22T04:32:13;19.13;;;9.20;;
46845;SDS011;33947;46.804;134.252;2023-07-22T04:35:18;14.30;;;8.73;;
46845;SDS011;33947;46.804;134.252;2023-07-22T04:38:25;17.40;;;9.25;;
46845;SDS011;33947;46.804;134.252;2023-07-22T04:41:29;14.15;;;8.98;;
46845;SDS011;33947;46.804;134.252;2023-07-22T04:44:34;11.30;;;8.57;;
46845;SDS011;33947;46.804;134.252;2023-07-22T04:47:39;17.45;;;8.32;;
46845;SDS011;33947;46.804;134.252;2023-07-22T04:50:45;13.07;;;9.02;;
46845;SDS011;33947;46.804;134.252;2023-07-22T04:53:49;13.77;;;8.60;;
46845;SDS011;33947;46.804;134.252;2023-07-22T04:59:58;16.38;;;8.45;;
46845;SDS011;33947;46.804;134.252;2023-07-22T05:03:06;13.45;;;8.23;;
46845;SDS011;33947;46.804;134.252;2023-07-22T05:06:11;18.83;;;8.63;;
46845;SDS011;33947;46.804;134.252;2023-07-22T05:09:54;13.13;;;8.57;;
46845;SDS011;33947;46.804;134.252;2023-07-22T05:12:59;11.70;;;7.90;;
46845;SDS011;33947;46.804;134.252;2023-07-22T05:19:08;15.95;;;8.60;;
46845;SDS011;33947;46.804;134.252;2023-07-22T05:22:13;12.90;;;8.55;;
46845;SDS011;33947;46.804;134.252;2023-07-22T05:25:17;13.18;;;9.98;;
46845;SDS011;33947;46.804;134.252;2023-07-22T05:31:28;12.35;;;8.10;;
46845;SDS011;33947;46.804;134.252;2023-07-22T05:37:37;11.93;;;8.45;;
46845;SDS011;33947;46.804;134.252;2023-07-22T05:40:45;11.30;;;8.07;;
46845;SDS011;33947;46.804;134.252;2023-07-22T05:43:50;13.35;;;10.20;;
46845;SDS011;33947;46.804;134.252;2023-07-22T05:47:02;14.90;;;9.25;;
46845;SDS011;33947;46.804;134.252;2023-07-22T05:50:06;11.45;;;8.88;;
46845;SDS011;33947;46.804;134.252;2023-07-22T05:53:14;13.93;;;8.88;;
46845;SDS011;33947;46.804;134.252;2023-07-22T05:59:27;12.05;;;8.45;;
46845;SDS011;33947;46.804;134.252;2023-07-22T06:02:33;15.60;;;8.35;;
46845;SDS011;33947;46.804;134.252;2023-07-22T06:05:44;11.57;;;7.82;;
46845;SDS011;33947;46.804;134.252;2023-07-22T06:08:48;14.00;;;8.30;;
46845;SDS011;33947;46.804;134.252;2023-07-22T06:11:53;16.35;;;9.20;;
46845;SDS011;33947;46.804;134.252;2023-07-22T06:15:00;13.80;;;8.18;;
46845;SDS011;33947;46.804;134.252;2023-07-22T06:18:07;16.10;;;8.98;;
46845;SDS011;33947;46.804;134.252;2023-07-22T06:21:15;12.13;;;8.60;;
46845;SDS011;33947;46.804;134.252;2023-07-22T06:24:20;12.38;;;8.65;;
46845;SDS011;33947;46.804;134.252;2023-07-22T06:27:29;16.13;;;9.02;;
46845;SDS011;33947;46.804;134.252;2023-07-22T06:30:34;12.65;;;8.98;;
46845;SDS011;33947;46.804;134.252;2023-07-22T06:33:41;16.77;;;8.95;;
46845;SDS011;33947;46.804;134.252;2023-07-22T06:36:46;23.30;;;9.95;;
46845;SDS011;33947;46.804;134.252;2023-07-22T06:39:54;19.17;;;8.52;;
46845;SDS011;33947;46.804;134.252;2023-07-22T06:42:59;14.40;;;9.30;;
46845;SDS011;33947;46.804;134.252;2023-07-22T06:46:06;20.30;;;9.13;;
46845;SDS011;33947;46.804;134.252;2023-07-22T06:49:13;14.82;;;8.30;;
46845;SDS011;33947;46.804;134.252;2023-07-22T06:52:20;25.38;;;10.63;;
46845;SDS011;33947;46.804;134.252;2023-07-22T06:55:25;15.35;;;8.60;;
46845;SDS011;33947;46.804;134.252;2023-07-22T06:58:30;17.52;;;9.07;;
46845;SDS011;33947;46.804;134.252;2023-07-22T07:01:35;16.33;;;9.50;;
46845;SDS011;33947;46.804;134.252;2023-07-22T07:04:41;11.75;;;8.60;;
46845;SDS011;33947;46.804;134.252;2023-07-22T07:07:45;15.05;;;9.57;;
46845;SDS011;33947;46.804;134.252;2023-07-22T07:13:55;10.60;;;8.05;;
46845;SDS011;33947;46.804;134.252;2023-07-22T07:17:05;21.67;;;9.63;;
46845;SDS011;33947;46.804;134.252;2023-07-22T07:20:13;15.13;;;9.00;;
46845;SDS011;33947;46.804;134.252;2023-07-22T07:23:19;14.60;;;9.23;;
46845;SDS011;33947;46.804;134.252;2023-07-22T07:26:30;13.60;;;9.77;;
46845;SDS011;33947;46.804;134.252;2023-07-22T07:30:02;15.98;;;10.00;;
46845;SDS011;33947;46.804;134.252;2023-07-22T07:34:03;17.58;;;11.60;;
46845;SDS011;33947;46.804;134.252;2023-07-22T07:37:19;15.35;;;11.23;;
46845;SDS011;33947;46.804;134.252;2023-07-22T07:43:31;18.02;;;9.38;;
46845;SDS011;33947;46.804;134.252;2023-07-22T07:46:35;16.27;;;9.38;;
46845;SDS011;33947;46.804;134.252;2023-07-22T07:49:44;16.80;;;9.15;;
46845;SDS011;33947;46.804;134.252;2023-07-22T07:52:49;16.25;;;9.75;;
46845;SDS011;33947;46.804;134.252;2023-07-22T07:55:58;23.40;;;9.85;;
46845;SDS011;33947;46.804;134.252;2023-07-22T07:59:13;16.73;;;9.75;;
46845;SDS011;33947;46.804;134.252;2023-07-22T08:02:17;19.85;;;10.05;;
46845;SDS011;33947;46.804;134.252;2023-07-22T08:05:24;16.80;;;10.35;;
46845;SDS011;33947;46.804;134.252;2023-07-22T08:08:28;15.02;;;9.75;;
46845;SDS011;33947;46.804;134.252;2023-07-22T08:11:39;16.83;;;9.85;;
46845;SDS011;33947;46.804;134.252;2023-07-22T08:17:51;29.58;;;11.02;;
46845;SDS011;33947;46.804;134.252;2023-07-22T08:20:58;15.38;;;9.65;;
46845;SDS011;33947;46.804;134.252;2023-07-22T08:24:04;13.02;;;9.25;;
46845;SDS011;33947;46.804;134.252;2023-07-22T08:30:13;15.25;;;9.82;;
46845;SDS011;33947;46.804;134.252;2023-07-22T08:33:18;17.52;;;10.55;;
46845;SDS011;33947;46.804;134.252;2023-07-22T08:36:41;19.90;;;10.50;;
46845;SDS011;33947;46.804;134.252;2023-07-22T08:39:46;18.60;;;12.10;;
46845;SDS011;33947;46.804;134.252;2023-07-22T08:42:50;20.73;;;11.32;;
46845;SDS011;33947;46.804;134.252;2023-07-22T08:45:59;34.08;;;11.95;;
46845;SDS011;33947;46.804;134.252;2023-07-22T08:49:06;14.70;;;10.13;;
46845;SDS011;33947;46.804;134.252;2023-07-22T08:52:13;25.10;;;10.80;;
46845;SDS011;33947;46.804;134.252;2023-07-22T08:55:18;13.75;;;9.75;;
46845;SDS011;33947;46.804;134.252;2023-07-22T08:58:24;19.35;;;11.00;;
46845;SDS011;33947;46.804;134.252;2023-07-22T09:01:29;20.42;;;10.70;;
46845;SDS011;33947;46.804;134.252;2023-07-22T09:04:34;18.35;;;10.48;;
46845;SDS011;33947;46.804;134.252;2023-07-22T09:07:41;18.73;;;11.77;;
46845;SDS011;33947;46.804;134.252;2023-07-22T09:10:48;17.42;;;10.40;;
46845;SDS011;33947;46.804;134.252;2023-07-22T09:13:54;18.77;;;10.75;;
46845;SDS011;33947;46.804;134.252;2023-07-22T09:17:00;17.25;;;10.80;;
46845;SDS011;33947;46.804;134.252;2023-07-22T09:20:05;13.77;;;10.30;;
46845;SDS011;33947;46.804;134.252;2023-07-22T09:23:11;14.77;;;10.35;;
46845;SDS011;33947;46.804;134.252;2023-07-22T09:26:19;13.02;;;10.23;;
46845;SDS011;33947;46.804;134.252;2023-07-22T09:29:37;16.92;;;11.32;;
46845;SDS011;33947;46.804;134.252;2023-07-22T09:32:48;27.92;;;11.52;;
46845;SDS011;33947;46.804;134.252;2023-07-22T09:35:53;20.33;;;11.60;;
46845;SDS011;33947;46.804;134.252;2023-07-22T09:39:00;20.40;;;11.63;;
46845;SDS011;33947;46.804;134.252;2023-07-22T09:42:08;20.33;;;11.60;;
46845;SDS011;33947;46.804;134.252;2023-07-22T09:48:21;19.25;;;11.90;;
46845;SDS011;33947;46.804;134.252;2023-07-22T09:51:26;15.35;;;11.38;;
46845;SDS011;33947;46.804;134.252;2023-07-22T09:54:47;19.23;;;11.90;;
46845;SDS011;33947;46.804;134.252;2023-07-22T09:57:56;21.05;;;11.32;;
46845;SDS011;33947;46.804;134.252;2023-07-22T10:01:02;16.58;;;11.90;;
46845;SDS011;33947;46.804;134.252;2023-07-22T10:04:07;14.55;;;11.40;;
46845;SDS011;33947;46.804;134.252;2023-07-22T10:07:14;18.38;;;12.18;;
46845;SDS011;33947;46.804;134.252;2023-07-22T10:10:30;22.60;;;12.85;;
46845;SDS011;33947;46.804;134.252;2023-07-22T10:13:41;18.25;;;12.50;;
46845;SDS011;33947;46.804;134.252;2023-07-22T10:16:48;21.45;;;12.40;;
46845;SDS011;33947;46.804;134.252;2023-07-22T10:19:55;18.58;;;12.63;;
46845;SDS011;33947;46.804;134.252;2023-07-22T10:23:01;20.67;;;13.52;;
46845;SDS011;33947;46.804;134.252;2023-07-22T10:26:08;25.52;;;12.57;;
46845;SDS011;33947;46.804;134.252;2023-07-22T10:29:17;19.02;;;13.05;;
46845;SDS011;33947;46.804;134.252;2023-07-22T10:32:22;28.58;;;14.93;;
46845;SDS011;33947;46.804;134.252;2023-07-22T10:38:37;21.70;;;13.32;;
46845;SDS011;33947;46.804;134.252;2023-07-22T10:41:42;18.17;;;12.35;;
46845;SDS011;33947;46.804;134.252;2023-07-22T10:44:51;27.80;;;13.60;;
46845;SDS011;33947;46.804;134.252;2023-07-22T10:48:07;25.25;;;14.60;;
46845;SDS011;33947;46.804;134.252;2023-07-22T10:51:15;22.98;;;13.88;;
46845;SDS011;33947;46.804;134.252;2023-07-22T10:54:34;26.15;;;13.13;;
46845;SDS011;33947;46.804;134.252;2023-07-22T10:57:49;18.15;;;12.88;;
46845;SDS011;33947;46.804;134.252;2023-07-22T11:00:56;20.92;;;12.93;;
46845;SDS011;33947;46.804;134.252;2023-07-22T11:04:06;19.00;;;12.15;;
46845;SDS011;33947;46.804;134.252;2023-07-22T11:07:53;20.92;;;12.85;;
46845;SDS011;33947;46.804;134.252;2023-07-22T11:11:13;25.13;;;13.35;;
46845;SDS011;33947;46.804;134.252;2023-07-22T11:14:21;24.70;;;13.68;;
46845;SDS011;33947;46.804;134.252;2023-07-22T11:17:31;18.05;;;12.75;;
46845;SDS011;33947;46.804;134.252;2023-07-22T11:20:36;19.90;;;13.18;;
46845;SDS011;33947;46.804;134.252;2023-07-22T11:23:41;21.23;;;14.18;;
46845;SDS011;33947;46.804;134.252;2023-07-22T11:26:46;19.17;;;12.40;;
46845;SDS011;33947;46.804;134.252;2023-07-22T11:29:58;23.33;;;13.18;;
46845;SDS011;33947;46.804;134.252;2023-07-22T11:33:05;19.75;;;12.68;;
46845;SDS011;33947;46.804;134.252;2023-07-22T11:36:09;21.58;;;13.20;;
46845;SDS011;33947;46.804;134.252;2023-07-22T11:39:23;23.95;;;13.90;;
46845;SDS011;33947;46.804;134.252;2023-07-22T11:42:29;28.15;;;13.85;;
46845;SDS011;33947;46.804;134.252;2023-07-22T11:48:49;24.83;;;14.13;;
46845;SDS011;33947;46.804;134.252;2023-07-22T11:51:55;25.02;;;14.82;;
46845;SDS011;33947;46.804;134.252;2023-07-22T11:55:13;26.83;;;13.45;;
46845;SDS011;33947;46.804;134.252;2023-07-22T11:58:32;19.83;;;13.40;;
46845;SDS011;33947;46.804;134.252;2023-07-22T12:01:38;22.73;;;13.40;;
46845;SDS011;33947;46.804;134.252;2023-07-22T12:04:43;23.13;;;13.52;;
46845;SDS011;33947;46.804;134.252;2023-07-22T12:07:56;18.58;;;13.85;;
46845;SDS011;33947;46.804;134.252;2023-07-22T12:11:00;17.02;;;13.57;;
46845;SDS011;33947;46.804;134.252;2023-07-22T12:17:22;20.90;;;12.68;;
46845;SDS011;33947;46.804;134.252;2023-07-22T12:20:30;20.38;;;13.52;;
46845;SDS011;33947;46.804;134.252;2023-07-22T12:23:37;17.83;;;13.40;;
46845;SDS011;33947;46.804;134.252;2023-07-22T12:26:42;20.05;;;13.63;;
46845;SDS011;33947;46.804;134.252;2023-07-22T12:29:47;18.23;;;13.23;;
46845;SDS011;33947;46.804;134.252;2023-07-22T12:32:55;33.38;;;20.63;;
46845;SDS011;33947;46.804;134.252;2023-07-22T12:36:00;31.00;;;19.58;;
46845;SDS011;33947;46.804;134.252;2023-07-22T12:39:04;35.30;;;18.80;;
46845;SDS011;33947;46.804;134.252;2023-07-22T12:42:09;26.80;;;16.77;;
46845;SDS011;33947;46.804;134.252;2023-07-22T12:45:14;32.38;;;17.83;;
46845;SDS011;33947;46.804;134.252;2023-07-22T12:48:18;24.42;;;17.13;;
46845;SDS011;33947;46.804;134.252;2023-07-22T12:51:23;22.85;;;15.48;;
46845;SDS011;33947;46.804;134.252;2023-07-22T12:54:29;26.60;;;15.95;;
46845;SDS011;33947;46.804;134.252;2023-07-22T12:57:35;24.92;;;16.30;;
46845;SDS011;33947;46.804;134.252;2023-07-22T13:00:40;24.50;;;16.10;;
46845;SDS011;33947;46.804;134.252;2023-07-22T13:03:44;25.50;;;16.25;;
46845;SDS011;33947;46.804;134.252;2023-07-22T13:06:49;22.50;;;15.38;;
46845;SDS011;33947;46.804;134.252;2023-07-22T13:09:57;22.10;;;15.02;;
46845;SDS011;33947;46.804;134.252;2023-07-22T13:13:05;27.52;;;15.13;;
46845;SDS011;33947;46.804;134.252;2023-07-22T13:16:09;21.27;;;13.77;;
46845;SDS011;33947;46.804;134.252;2023-07-22T13:19:14;21.95;;;14.70;;
46845;SDS011;33947;46.804;134.252;2023-07-22T13:22:19;28.58;;;14.52;;
46845;SDS011;33947;46.804;134.252;2023-07-22T13:25:24;22.17;;;14.25;;
46845;SDS011;33947;46.804;134.252;2023-07-22T13:28:28;24.45;;;14.82;;
46845;SDS011;33947;46.804;134.252;2023-07-22T13:31:33;20.73;;;13.63;;
46845;SDS011;33947;46.804;134.252;2023-07-22T13:34:38;17.30;;;12.98;;
46845;SDS011;33947;46.804;134.252;2023-07-22T13:37:43;21.55;;;13.93;;
46845;SDS011;33947;46.804;134.252;2023-07-22T13:40:47;19.40;;;13.63;;
46845;SDS011;33947;46.804;134.252;2023-07-22T13:43:54;19.80;;;14.35;;
46845;SDS011;33947;46.804;134.252;2023-07-22T13:47:02;19.35;;;12.90;;
46845;SDS011;33947;46.804;134.252;2023-07-22T13:50:07;22.38;;;13.93;;
46845;SDS011;33947;46.804;134.252;2023-07-22T13:53:12;22.83;;;13.70;;
46845;SDS011;33947;46.804;134.252;2023-07-22T13:56:17;22.45;;;13.88;;
46845;SDS011;33947;46.804;134.252;2023-07-22T14:02:27;16.58;;;12.70;;
46845;SDS011;33947;46.804;134.252;2023-07-22T14:05:35;15.88;;;12.80;;
46845;SDS011;33947;46.804;134.252;2023-07-22T14:08:45;20.90;;;13.35;;
46845;SDS011;33947;46.804;134.252;2023-07-22T14:11:50;19.27;;;12.95;;
46845;SDS011;33947;46.804;134.252;2023-07-22T14:14:57;18.35;;;13.70;;
46845;SDS011;33947;46.804;134.252;2023-07-22T14:18:05;18.48;;;12.43;;
46845;SDS011;33947;46.804;134.252;2023-07-22T14:21:09;20.58;;;13.25;;
46845;SDS011;33947;46.804;134.252;2023-07-22T14:27:25;17.92;;;12.82;;
46845;SDS011;33947;46.804;134.252;2023-07-22T14:30:29;23.60;;;13.07;;
46845;SDS011;33947;46.804;134.252;2023-07-22T14:33:35;19.70;;;13.73;;
46845;SDS011;33947;46.804;134.252;2023-07-22T14:36:40;20.58;;;12.73;;
46845;SDS011;33947;46.804;134.252;2023-07-22T14:39:47;18.42;;;12.18;;
46845;SDS011;33947;46.804;134.252;2023-07-22T14:42:55;18.45;;;13.45;;
46845;SDS011;33947;46.804;134.252;2023-07-22T14:49:29;22.25;;;13.50;;
46845;SDS011;33947;46.804;134.252;2023-07-22T14:55:38;24.67;;;14.63;;
46845;SDS011;33947;46.804;134.252;2023-07-22T14:58:45;21.95;;;13.93;;
46845;SDS011;33947;46.804;134.252;2023-07-22T15:01:49;19.92;;;14.60;;
46845;SDS011;33947;46.804;134.252;2023-07-22T15:04:54;24.83;;;15.32;;
46845;SDS011;33947;46.804;134.252;2023-07-22T15:07:59;24.13;;;14.55;;
46845;SDS011;33947;46.804;134.252;2023-07-22T15:11:04;22.98;;;14.48;;
46845;SDS011;33947;46.804;134.252;2023-07-22T15:14:08;21.13;;;14.48;;
46845;SDS011;33947;46.804;134.252;2023-07-22T15:17:13;20.90;;;14.35;;
46845;SDS011;33947;46.804;134.252;2023-07-22T15:20:18;20.48;;;14.18;;
46845;SDS011;33947;46.804;134.252;2023-07-22T15:23:23;20.98;;;14.27;;
46845;SDS011;33947;46.804;134.252;2023-07-22T15:26:27;19.75;;;14.55;;
46845;SDS011;33947;46.804;134.252;2023-07-22T15:29:32;22.08;;;14.50;;
46845;SDS011;33947;46.804;134.252;2023-07-22T15:32:39;20.75;;;14.25;;
46845;SDS011;33947;46.804;134.252;2023-07-22T15:35:49;20.90;;;14.65;;
46845;SDS011;33947;46.804;134.252;2023-07-22T15:38:53;21.08;;;14.85;;
46845;SDS011;33947;46.804;134.252;2023-07-22T15:42:00;19.92;;;13.57;;
46845;SDS011;33947;46.804;134.252;2023-07-22T15:45:10;22.85;;;13.25;;
46845;SDS011;33947;46.804;134.252;2023-07-22T15:48:17;22.92;;;13.38;;
46845;SDS011;33947;46.804;134.252;2023-07-22T15:51:25;20.75;;;13.00;;
46845;SDS011;33947;46.804;134.252;2023-07-22T15:54:31;18.10;;;13.18;;
46845;SDS011;33947;46.804;134.252;2023-07-22T15:57:36;20.42;;;13.20;;
46845;SDS011;33947;46.804;134.252;2023-07-22T16:00:41;18.92;;;14.38;;
46845;SDS011;33947;46.804;134.252;2023-07-22T16:03:45;23.08;;;14.50;;
46845;SDS011;33947;46.804;134.252;2023-07-22T16:06:50;18.73;;;13.73;;
46845;SDS011;33947;46.804;134.252;2023-07-22T16:09:55;22.00;;;14.23;;
46845;SDS011;33947;46.804;134.252;2023-07-22T16:12:59;18.60;;;13.98;;
46845;SDS011;33947;46.804;134.252;2023-07-22T16:16:04;19.83;;;13.70;;
46845;SDS011;33947;46.804;134.252;2023-07-22T16:19:10;18.98;;;13.32;;
46845;SDS011;33947;46.804;134.252;2023-07-22T16:22:14;19.25;;;13.63;;
46845;SDS011;33947;46.804;134.252;2023-07-22T16:25:19;19.67;;;14.18;;
46845;SDS011;33947;46.804;134.252;2023-07-22T16:28:24;17.13;;;13.23;;
46845;SDS011;33947;46.804;134.252;2023-07-22T16:31:28;20.65;;;13.02;;
46845;SDS011;33947;46.804;134.252;2023-07-22T16:34:33;23.58;;;13.95;;
46845;SDS011;33947;46.804;134.252;2023-07-22T16:40:43;22.83;;;14.82;;
46845;SDS011;33947;46.804;134.252;2023-07-22T16:43:47;20.10;;;13.60;;
46845;SDS011;33947;46.804;134.252;2023-07-22T16:46:52;19.95;;;14.20;;
46845;SDS011;33947;46.804;134.252;2023-07-22T16:49:56;22.33;;;13.80;;
46845;SDS011;33947;46.804;134.252;2023-07-22T16:53:05;16.98;;;13.55;;
46845;SDS011;33947;46.804;134.252;2023-07-22T16:56:15;19.33;;;13.98;;
46845;SDS011;33947;46.804;134.252;2023-07-22T16:59:20;18.85;;;13.55;;
46845;SDS011;33947;46.804;134.252;2023-07-22T17:02:25;19.55;;;14.20;;
46845;SDS011;33947;46.804;134.252;2023-07-22T17:05:30;19.23;;;13.18;;
46845;SDS011;33947;46.804;134.252;2023-07-22T17:08:35;18.77;;;13.55;;
46845;SDS011;33947;46.804;134.252;2023-07-22T17:11:42;25.27;;;15.88;;
46845;SDS011;33947;46.804;134.252;2023-07-22T17:14:47;20.50;;;14.63;;
46845;SDS011;33947;46.804;134.252;2023-07-22T17:17:55;21.65;;;14.27;;
46845;SDS011;33947;46.804;134.252;2023-07-22T17:20:59;18.75;;;13.80;;
46845;SDS011;33947;46.804;134.252;2023-07-22T17:24:04;22.77;;;14.63;;
46845;SDS011;33947;46.804;134.252;2023-07-22T17:27:09;22.10;;;13.55;;
46845;SDS011;33947;46.804;134.252;2023-07-22T17:30:14;17.77;;;13.63;;
46845;SDS011;33947;46.804;134.252;2023-07-22T17:33:18;25.03;;;14.47;;
46845;SDS011;33947;46.804;134.252;2023-07-22T17:36:23;22.70;;;14.02;;
46845;SDS011;33947;46.804;134.252;2023-07-22T17:39:28;22.77;;;14.73;;
46845;SDS011;33947;46.804;134.252;2023-07-22T17:42:34;20.52;;;14.52;;
46845;SDS011;33947;46.804;134.252;2023-07-22T17:45:39;20.05;;;13.77;;
46845;SDS011;33947;46.804;134.252;2023-07-22T17:48:43;22.23;;;13.95;;
46845;SDS011;33947;46.804;134.252;2023-07-22T17:51:49;20.38;;;13.82;;
46845;SDS011;33947;46.804;134.252;2023-07-22T17:54:57;21.92;;;14.63;;
46845;SDS011;33947;46.804;134.252;2023-07-22T17:58:02;20.92;;;14.20;;
46845;SDS011;33947;46.804;134.252;2023-07-22T18:01:07;22.83;;;13.43;;
46845;SDS011;33947;46.804;134.252;2023-07-22T18:04:12;21.75;;;14.63;;
46845;SDS011;33947;46.804;134.252;2023-07-22T18:07:19;21.00;;;14.50;;
46845;SDS011;33947;46.804;134.252;2023-07-22T18:10:23;23.45;;;15.60;;
46845;SDS011;33947;46.804;134.252;2023-07-22T18:13:28;22.88;;;15.43;;
46845;SDS011;33947;46.804;134.252;2023-07-22T18:16:36;22.83;;;15.50;;
46845;SDS011;33947;46.804;134.252;2023-07-22T18:19:40;23.38;;;15.18;;
46845;SDS011;33947;46.804;134.252;2023-07-22T18:22:45;21.23;;;15.15;;
46845;SDS011;33947;46.804;134.252;2023-07-22T18:25:49;22.08;;;16.85;;
46845;SDS011;33947;46.804;134.252;2023-07-22T18:28:54;28.40;;;19.13;;
46845;SDS011;33947;46.804;134.252;2023-07-22T18:31:59;23.73;;;16.77;;
46845;SDS011;33947;46.804;134.252;2023-07-22T18:35:04;28.25;;;16.40;;
46845;SDS011;33947;46.804;134.252;2023-07-22T18:38:10;26.92;;;16.05;;
46845;SDS011;33947;46.804;134.252;2023-07-22T18:41:18;24.35;;;15.85;;
46845;SDS011;33947;46.804;134.252;2023-07-22T18:44:22;26.13;;;17.27;;
46845;SDS011;33947;46.804;134.252;2023-07-22T18:47:27;25.20;;;16.85;;
46845;SDS011;33947;46.804;134.252;2023-07-22T18:50:32;23.88;;;15.80;;
46845;SDS011;33947;46.804;134.252;2023-07-22T18:53:38;21.92;;;15.52;;
46845;SDS011;33947;46.804;134.252;2023-07-22T18:56:46;22.52;;;15.65;;
46845;SDS011;33947;46.804;134.252;2023-07-22T19:10:22;18.95;;;12.80;;
46845;SDS011;33947;46.804;134.252;2023-07-22T19:13:38;19.20;;;13.90;;
46845;SDS011;33947;46.804;134.252;2023-07-22T19:16:56;24.80;;;13.80;;
46845;SDS011;33947;46.804;134.252;2023-07-22T19:20:02;15.30;;;12.65;;